Puerto Banus, Marbella

>

This is an optional block (switch it off / on) in the settings - file ($SITE['banners'] = false;)

You can display ads, any other important text or photo’s using text / html or PHP code.

You can place one or more at the top and or bottom and it can all be different for content / size .



Meteosat more information blitzortung!


Radar lluvias  rain snow radar


Visita nuestra red de sitios de meteo:

Documentation for the template used

MeteoibericaRed estaciones Meteorologicas

MeteoclimaticRed estaciones Meteorologicas



Sin Advertencias climatologicas .En este momento tenemos Nivel Verde.    No hay Alarmas

Pagina Historial Weather Underground texto

Diario Resumen January 1, 2018 Unidades:  Tanto    impérial   Métrico
« Anterior Dia
Siguiente Dia »
Diario Semana Mensual Anual Personalizada
  Maxima: Minima: Media:
Temperatura: 64.4 °F /  18.0 °C 52.5 °F /  11.4 °C 58.3 °F /  14.6 °C
Punto de rocío: 52.7 °F /  11.5 °C 28 °F /  -2.2 °C 43.2 °F /  6.2 °C
Humedad: 75 % 32 % 58 %
Velocidad del Viento: 11.5 mph /  18.5 km/h - 4.3 mph /  6.9 km/h
Ráfagas de viento: 11.5 mph /  18.5 km/h - -
Viento:- - WSW
Pression baro: 30.5 in /  1034.1 hPa 30.4 in /  1030.4 hPa -
Précipitaciones: 0 in /  0.0 mm    
Historical Graphs
 
 
Datos de tabla para January 1, 2018
Tiempo Temperatura Punto de rocío Pression baro Viento Velocidad del Viento Ráfagas de viento Humedad Las precipitaciones Rate ( Hora )
00:02 63.7 °F /  17.6 °C 49.5 °F /  9.7 °C 30.4 in /  1030.7 hPa NNW 8.1 mph /  13.0 km/h 8.1 mph /  13.0 km/h 60 % 0 in /  0.0 mm
00:07 64.2 °F /  17.9 °C 49.1 °F /  9.5 °C 30.4 in /  1030.7 hPa North 7 mph /  11.3 km/h 7 mph /  11.3 km/h 58 % 0 in /  0.0 mm
00:08 64.2 °F /  17.9 °C 49.1 °F /  9.5 °C 30.4 in /  1030.7 hPa NNW 9.2 mph /  14.8 km/h 9.2 mph /  14.8 km/h 58 % 0 in /  0.0 mm
00:13 64.2 °F /  17.9 °C 48.7 °F /  9.3 °C 30.4 in /  1030.7 hPa NNW 5.8 mph /  9.3 km/h 5.8 mph /  9.3 km/h 57 % 0 in /  0.0 mm
00:14 64.4 °F /  18.0 °C 48.7 °F /  9.3 °C 30.4 in /  1030.7 hPa NW 5.8 mph /  9.3 km/h 5.8 mph /  9.3 km/h 57 % 0 in /  0.0 mm
00:18 64.4 °F /  18.0 °C 48.7 °F /  9.3 °C 30.4 in /  1030.4 hPa NW 5.8 mph /  9.3 km/h 5.8 mph /  9.3 km/h 57 % 0 in /  0.0 mm
00:23 64.2 °F /  17.9 °C 48.7 °F /  9.3 °C 30.4 in /  1030.7 hPa NW 6.9 mph /  11.1 km/h 6.9 mph /  11.1 km/h 57 % 0 in /  0.0 mm
00:24 64.2 °F /  17.9 °C 48.7 °F /  9.3 °C 30.4 in /  1030.7 hPa NW 5.8 mph /  9.3 km/h 5.8 mph /  9.3 km/h 57 % 0 in /  0.0 mm
00:25 64.2 °F /  17.9 °C 48.6 °F /  9.2 °C 30.4 in /  1030.7 hPa NW 6 mph /  9.7 km/h 6 mph /  9.7 km/h 57 % 0 in /  0.0 mm
00:29 64 °F /  17.8 °C 48.6 °F /  9.2 °C 30.4 in /  1030.7 hPa NNW 8.1 mph /  13.0 km/h 8.1 mph /  13.0 km/h 57 % 0 in /  0.0 mm
00:34 63.7 °F /  17.6 °C 49.5 °F /  9.7 °C 30.4 in /  1030.7 hPa NE 5.8 mph /  9.3 km/h 5.8 mph /  9.3 km/h 60 % 0 in /  0.0 mm
00:35 63.5 °F /  17.5 °C 49.5 °F /  9.7 °C 30.4 in /  1030.7 hPa NE 6 mph /  9.7 km/h 6 mph /  9.7 km/h 60 % 0 in /  0.0 mm
00:40 63.1 °F /  17.3 °C 48.6 °F /  9.2 °C 30.4 in /  1030.7 hPa NNE 1.2 mph /  1.9 km/h   59 % 0 in /  0.0 mm
00:41 63.1 °F /  17.3 °C 48.6 °F /  9.2 °C 30.4 in /  1030.7 hPa Calm     59 % 0 in /  0.0 mm
00:42 63.1 °F /  17.3 °C 49.1 °F /  9.5 °C 30.4 in /  1030.7 hPa Calm     60 % 0 in /  0.0 mm
00:47 63.1 °F /  17.3 °C 50.7 °F /  10.4 °C 30.4 in /  1030.7 hPa ENE 2.3 mph /  3.7 km/h 2.3 mph /  3.7 km/h 64 % 0 in /  0.0 mm
00:48 63 °F /  17.2 °C 50.5 °F /  10.3 °C 30.4 in /  1030.7 hPa East 2.3 mph /  3.7 km/h 2.3 mph /  3.7 km/h 64 % 0 in /  0.0 mm
00:52 62.8 °F /  17.1 °C 50.9 °F /  10.5 °C 30.4 in /  1030.7 hPa ENE 2 mph /  3.2 km/h 2 mph /  3.2 km/h 65 % 0 in /  0.0 mm
00:55 62.4 °F /  16.9 °C 51.4 °F /  10.8 °C 30.4 in /  1031.0 hPa ENE 5 mph /  8.0 km/h 5 mph /  8.0 km/h 67 % 0 in /  0.0 mm
01:00 62.2 °F /  16.8 °C 51.4 °F /  10.8 °C 30.4 in /  1030.7 hPa ENE 3.5 mph /  5.6 km/h 3.5 mph /  5.6 km/h 68 % 0 in /  0.0 mm
01:01 62.1 °F /  16.7 °C 51.4 °F /  10.8 °C 30.4 in /  1030.7 hPa ENE 3.5 mph /  5.6 km/h 3.5 mph /  5.6 km/h 68 % 0 in /  0.0 mm
01:06 61.7 °F /  16.5 °C 50.5 °F /  10.3 °C 30.4 in /  1031.0 hPa Calm     67 % 0 in /  0.0 mm
01:08 61.7 °F /  16.5 °C 51.1 °F /  10.6 °C 30.4 in /  1031.0 hPa Calm     68 % 0 in /  0.0 mm
01:10 61.5 °F /  16.4 °C 50.9 °F /  10.5 °C 30.4 in /  1031.0 hPa Calm     68 % 0 in /  0.0 mm
01:14 61.3 °F /  16.3 °C 50.7 °F /  10.4 °C 30.4 in /  1031.0 hPa Calm     68 % 0 in /  0.0 mm
01:19 61.3 °F /  16.3 °C 50.5 °F /  10.3 °C 30.4 in /  1031.0 hPa NE 3.5 mph /  5.6 km/h 3.5 mph /  5.6 km/h 68 % 0 in /  0.0 mm
01:23 61.2 °F /  16.2 °C 50.5 °F /  10.3 °C 30.4 in /  1031.0 hPa NNW 3.5 mph /  5.6 km/h 3.5 mph /  5.6 km/h 68 % 0 in /  0.0 mm
01:28 61 °F /  16.1 °C 50.4 °F /  10.2 °C 30.4 in /  1031.0 hPa Calm     68 % 0 in /  0.0 mm
01:29 61 °F /  16.1 °C 50.4 °F /  10.2 °C 30.4 in /  1031.0 hPa NW 2 mph /  3.2 km/h 2 mph /  3.2 km/h 68 % 0 in /  0.0 mm
01:34 61 °F /  16.1 °C 50.4 °F /  10.2 °C 30.4 in /  1031.0 hPa Calm     68 % 0 in /  0.0 mm
01:35 61 °F /  16.1 °C 50.4 °F /  10.2 °C 30.4 in /  1031.0 hPa Calm     68 % 0 in /  0.0 mm
01:40 61 °F /  16.1 °C 50.7 °F /  10.4 °C 30.4 in /  1031.0 hPa Calm     69 % 0 in /  0.0 mm
01:41 61 °F /  16.1 °C 50.7 °F /  10.4 °C 30.4 in /  1031.0 hPa Calm     69 % 0 in /  0.0 mm
01:46 61 °F /  16.1 °C 50.7 °F /  10.4 °C 30.4 in /  1031.0 hPa Calm     69 % 0 in /  0.0 mm
01:47 61 °F /  16.1 °C 51.1 °F /  10.6 °C 30.4 in /  1031.0 hPa NW 2 mph /  3.2 km/h 2 mph /  3.2 km/h 70 % 0 in /  0.0 mm
01:52 61 °F /  16.1 °C 50.7 °F /  10.4 °C 30.4 in /  1031.0 hPa Calm     69 % 0 in /  0.0 mm
01:56 61 °F /  16.1 °C 50.7 °F /  10.4 °C 30.4 in /  1031.0 hPa NW 4 mph /  6.4 km/h 4 mph /  6.4 km/h 69 % 0 in /  0.0 mm
01:57 60.6 °F /  15.9 °C 50.2 °F /  10.1 °C 30.4 in /  1031.0 hPa North 5 mph /  8.0 km/h 5 mph /  8.0 km/h 68 % 0 in /  0.0 mm
02:01 59.7 °F /  15.4 °C 48.7 °F /  9.3 °C 30.4 in /  1031.0 hPa North 6 mph /  9.7 km/h 6 mph /  9.7 km/h 67 % 0 in /  0.0 mm
02:04 59.2 °F /  15.1 °C 48.6 °F /  9.2 °C 30.4 in /  1031.0 hPa North 5 mph /  8.0 km/h 5 mph /  8.0 km/h 68 % 0 in /  0.0 mm
02:09 58.6 °F /  14.8 °C 48 °F /  8.9 °C 30.4 in /  1031.0 hPa North 6 mph /  9.7 km/h 6 mph /  9.7 km/h 68 % 0 in /  0.0 mm
02:14 57.7 °F /  14.3 °C 47.7 °F /  8.7 °C 30.4 in /  1031.0 hPa North 5.8 mph /  9.3 km/h 5.8 mph /  9.3 km/h 69 % 0 in /  0.0 mm
02:16 57.6 °F /  14.2 °C 47.5 °F /  8.6 °C 30.4 in /  1031.0 hPa North 6 mph /  9.7 km/h 6 mph /  9.7 km/h 69 % 0 in /  0.0 mm
02:19 57.4 °F /  14.1 °C 47.7 °F /  8.7 °C 30.4 in /  1031.0 hPa NNW 5.8 mph /  9.3 km/h 5.8 mph /  9.3 km/h 70 % 0 in /  0.0 mm
02:22 57.4 °F /  14.1 °C 47.7 °F /  8.7 °C 30.4 in /  1031.0 hPa NNW 5.8 mph /  9.3 km/h 5.8 mph /  9.3 km/h 70 % 0 in /  0.0 mm
02:24 57.4 °F /  14.1 °C 47.7 °F /  8.7 °C 30.4 in /  1031.0 hPa NNW 4.6 mph /  7.4 km/h 4.6 mph /  7.4 km/h 70 % 0 in /  0.0 mm
02:29 57.4 °F /  14.1 °C 47.7 °F /  8.7 °C 30.4 in /  1031.0 hPa NNW 4 mph /  6.4 km/h 4 mph /  6.4 km/h 70 % 0 in /  0.0 mm
02:30 57.2 °F /  14.0 °C 47.1 °F /  8.4 °C 30.4 in /  1031.0 hPa North 5 mph /  8.0 km/h 5 mph /  8.0 km/h 69 % 0 in /  0.0 mm
02:35 56.8 °F /  13.8 °C 46.8 °F /  8.2 °C 30.4 in /  1031.0 hPa NNW 4.6 mph /  7.4 km/h 4.6 mph /  7.4 km/h 69 % 0 in /  0.0 mm
02:36 56.8 °F /  13.8 °C 46.8 °F /  8.2 °C 30.4 in /  1031.0 hPa NNW 4.6 mph /  7.4 km/h 4.6 mph /  7.4 km/h 69 % 0 in /  0.0 mm
02:39 56.7 °F /  13.7 °C 46.6 °F /  8.1 °C 30.4 in /  1031.0 hPa NNW 3.5 mph /  5.6 km/h 3.5 mph /  5.6 km/h 69 % 0 in /  0.0 mm
02:41 56.8 °F /  13.8 °C 46.8 °F /  8.2 °C 30.4 in /  1031.0 hPa NNW 2.3 mph /  3.7 km/h 2.3 mph /  3.7 km/h 69 % 0 in /  0.0 mm
02:46 56.8 °F /  13.8 °C 46 °F /  7.8 °C 30.4 in /  1031.0 hPa North 4 mph /  6.4 km/h 4 mph /  6.4 km/h 67 % 0 in /  0.0 mm
02:47 56.8 °F /  13.8 °C 46 °F /  7.8 °C 30.4 in /  1031.0 hPa North 4.6 mph /  7.4 km/h 4.6 mph /  7.4 km/h 67 % 0 in /  0.0 mm
02:48 56.8 °F /  13.8 °C 46 °F /  7.8 °C 30.4 in /  1031.0 hPa North 3.5 mph /  5.6 km/h 3.5 mph /  5.6 km/h 67 % 0 in /  0.0 mm
02:53 57 °F /  13.9 °C 45.7 °F /  7.6 °C 30.4 in /  1031.0 hPa NW 3.5 mph /  5.6 km/h 3.5 mph /  5.6 km/h 66 % 0 in /  0.0 mm
02:58 57.2 °F /  14.0 °C 45.5 °F /  7.5 °C 30.4 in /  1030.7 hPa North 4.6 mph /  7.4 km/h 4.6 mph /  7.4 km/h 65 % 0 in /  0.0 mm
02:59 57.4 °F /  14.1 °C 45.1 °F /  7.3 °C 30.4 in /  1031.0 hPa North 4.6 mph /  7.4 km/h 4.6 mph /  7.4 km/h 64 % 0 in /  0.0 mm
03:03 57.4 °F /  14.1 °C 45.1 °F /  7.3 °C 30.4 in /  1031.0 hPa NNW 3.5 mph /  5.6 km/h 3.5 mph /  5.6 km/h 64 % 0 in /  0.0 mm
03:04 57.4 °F /  14.1 °C 45.1 °F /  7.3 °C 30.4 in /  1031.0 hPa NNW 3.5 mph /  5.6 km/h 3.5 mph /  5.6 km/h 64 % 0 in /  0.0 mm
03:05 57.2 °F /  14.0 °C 44.8 °F /  7.1 °C 30.4 in /  1031.0 hPa NNW 3.5 mph /  5.6 km/h 3.5 mph /  5.6 km/h 63 % 0 in /  0.0 mm
03:09 57.2 °F /  14.0 °C 44.8 °F /  7.1 °C 30.4 in /  1031.0 hPa Calm     63 % 0 in /  0.0 mm
03:10 57.2 °F /  14.0 °C 44.8 °F /  7.1 °C 30.4 in /  1031.0 hPa NNW 1 mph /  1.6 km/h 1 mph /  1.6 km/h 63 % 0 in /  0.0 mm
03:14 57 °F /  13.9 °C 44.2 °F /  6.8 °C 30.4 in /  1031.0 hPa NNW 3.5 mph /  5.6 km/h 3.5 mph /  5.6 km/h 62 % 0 in /  0.0 mm
03:17 57 °F /  13.9 °C 44.1 °F /  6.7 °C 30.4 in /  1031.0 hPa Calm     62 % 0 in /  0.0 mm
03:19 57 °F /  13.9 °C 44.1 °F /  6.7 °C 30.4 in /  1031.0 hPa Calm     62 % 0 in /  0.0 mm
03:24 56.7 °F /  13.7 °C 43.9 °F /  6.6 °C 30.4 in /  1031.0 hPa North 5 mph /  8.0 km/h 5 mph /  8.0 km/h 62 % 0 in /  0.0 mm
03:26 56.7 °F /  13.7 °C 43.9 °F /  6.6 °C 30.4 in /  1031.0 hPa North 4.6 mph /  7.4 km/h 4.6 mph /  7.4 km/h 62 % 0 in /  0.0 mm
03:31 56.7 °F /  13.7 °C 43 °F /  6.1 °C 30.4 in /  1031.0 hPa North 4.6 mph /  7.4 km/h 4.6 mph /  7.4 km/h 60 % 0 in /  0.0 mm
03:32 56.7 °F /  13.7 °C 43 °F /  6.1 °C 30.5 in /  1031.4 hPa North 5 mph /  8.0 km/h 5 mph /  8.0 km/h 60 % 0 in /  0.0 mm
03:35 56.7 °F /  13.7 °C 42.4 °F /  5.8 °C 30.5 in /  1031.4 hPa NNW 4 mph /  6.4 km/h 4 mph /  6.4 km/h 59 % 0 in /  0.0 mm
03:38 56.7 °F /  13.7 °C 42.1 °F /  5.6 °C 30.5 in /  1031.4 hPa NNW 3.5 mph /  5.6 km/h 3.5 mph /  5.6 km/h 58 % 0 in /  0.0 mm
03:41 56.7 °F /  13.7 °C 41.5 °F /  5.3 °C 30.4 in /  1031.0 hPa NNW 3.5 mph /  5.6 km/h 3.5 mph /  5.6 km/h 57 % 0 in /  0.0 mm
03:43 56.7 °F /  13.7 °C 40.6 °F /  4.8 °C 30.4 in /  1031.0 hPa NNW 3.5 mph /  5.6 km/h 3.5 mph /  5.6 km/h 55 % 0 in /  0.0 mm
03:47 56.7 °F /  13.7 °C 40.6 °F /  4.8 °C 30.4 in /  1031.0 hPa Calm     55 % 0 in /  0.0 mm
03:49 56.8 °F /  13.8 °C 41.4 °F /  5.2 °C 30.5 in /  1031.4 hPa Calm     56 % 0 in /  0.0 mm
03:54 56.8 °F /  13.8 °C 41.4 °F /  5.2 °C 30.5 in /  1031.4 hPa Calm     56 % 0 in /  0.0 mm
03:55 56.8 °F /  13.8 °C 40.8 °F /  4.9 °C 30.4 in /  1031.0 hPa NNW 4 mph /  6.4 km/h 4 mph /  6.4 km/h 55 % 0 in /  0.0 mm
03:56 57 °F /  13.9 °C 42.4 °F /  5.8 °C 30.4 in /  1031.0 hPa NW 4.6 mph /  7.4 km/h 4.6 mph /  7.4 km/h 58 % 0 in /  0.0 mm
04:00 57.2 °F /  14.0 °C 39.7 °F /  4.3 °C 30.4 in /  1031.0 hPa North 5.8 mph /  9.3 km/h 5.8 mph /  9.3 km/h 52 % 0 in /  0.0 mm
04:05 57.7 °F /  14.3 °C 38.8 °F /  3.8 °C 30.4 in /  1031.0 hPa NNW 4.6 mph /  7.4 km/h 4.6 mph /  7.4 km/h 49 % 0 in /  0.0 mm
04:07 57.9 °F /  14.4 °C 38.3 °F /  3.5 °C 30.5 in /  1031.4 hPa NNW 4.6 mph /  7.4 km/h 4.6 mph /  7.4 km/h 48 % 0 in /  0.0 mm
04:13 58.3 °F /  14.6 °C 39.6 °F /  4.2 °C 30.5 in /  1031.4 hPa NW 3 mph /  4.8 km/h 3 mph /  4.8 km/h 50 % 0 in /  0.0 mm
04:14 58.3 °F /  14.6 °C 39.6 °F /  4.2 °C 30.5 in /  1031.4 hPa NW 3.5 mph /  5.6 km/h 3.5 mph /  5.6 km/h 50 % 0 in /  0.0 mm
04:19 58.1 °F /  14.5 °C 38.5 °F /  3.6 °C 30.5 in /  1031.4 hPa North 4.6 mph /  7.4 km/h 4.6 mph /  7.4 km/h 48 % 0 in /  0.0 mm
04:20 58.1 °F /  14.5 °C 38.5 °F /  3.6 °C 30.5 in /  1031.4 hPa NNW 4.6 mph /  7.4 km/h 4.6 mph /  7.4 km/h 48 % 0 in /  0.0 mm
04:23 57.9 °F /  14.4 °C 38.8 °F /  3.8 °C 30.5 in /  1031.4 hPa WNW 3.5 mph /  5.6 km/h 3.5 mph /  5.6 km/h 49 % 0 in /  0.0 mm
04:26 57.9 °F /  14.4 °C 38.3 °F /  3.5 °C 30.5 in /  1031.4 hPa WNW 3.5 mph /  5.6 km/h 3.5 mph /  5.6 km/h 48 % 0 in /  0.0 mm
04:30 57.7 °F /  14.3 °C 38.8 °F /  3.8 °C 30.5 in /  1031.4 hPa WNW 2.3 mph /  3.7 km/h 2.3 mph /  3.7 km/h 49 % 0 in /  0.0 mm
04:33 57.7 °F /  14.3 °C 38.7 °F /  3.7 °C 30.5 in /  1031.4 hPa WNW 2.3 mph /  3.7 km/h 2.3 mph /  3.7 km/h 49 % 0 in /  0.0 mm
04:38 57.4 °F /  14.1 °C 38.8 °F /  3.8 °C 30.4 in /  1031.0 hPa NW 2.3 mph /  3.7 km/h 2.3 mph /  3.7 km/h 50 % 0 in /  0.0 mm
04:43 57 °F /  13.9 °C 39 °F /  3.9 °C 30.4 in /  1031.0 hPa WNW 3.5 mph /  5.6 km/h 3.5 mph /  5.6 km/h 51 % 0 in /  0.0 mm
04:44 57 °F /  13.9 °C 39 °F /  3.9 °C 30.4 in /  1031.0 hPa WNW 3.5 mph /  5.6 km/h 3.5 mph /  5.6 km/h 51 % 0 in /  0.0 mm
04:49 56.7 °F /  13.7 °C 39.4 °F /  4.1 °C 30.4 in /  1031.0 hPa NW 3.5 mph /  5.6 km/h 3.5 mph /  5.6 km/h 52 % 0 in /  0.0 mm
04:54 56.5 °F /  13.6 °C 39.6 °F /  4.2 °C 30.4 in /  1031.0 hPa West 3.5 mph /  5.6 km/h 3.5 mph /  5.6 km/h 53 % 0 in /  0.0 mm
04:59 55.9 °F /  13.3 °C 38.7 °F /  3.7 °C 30.4 in /  1031.0 hPa NW 3.5 mph /  5.6 km/h 3.5 mph /  5.6 km/h 52 % 0 in /  0.0 mm
05:00 55.9 °F /  13.3 °C 38.1 °F /  3.4 °C 30.4 in /  1031.0 hPa North 5.8 mph /  9.3 km/h 5.8 mph /  9.3 km/h 51 % 0 in /  0.0 mm
05:05 55.9 °F /  13.3 °C 38.7 °F /  3.7 °C 30.4 in /  1031.0 hPa WNW 5 mph /  8.0 km/h 5 mph /  8.0 km/h 52 % 0 in /  0.0 mm
05:06 55.9 °F /  13.3 °C 39 °F /  3.9 °C 30.4 in /  1031.0 hPa WNW 4.6 mph /  7.4 km/h 4.6 mph /  7.4 km/h 53 % 0 in /  0.0 mm
05:10 55.9 °F /  13.3 °C 38.5 °F /  3.6 °C 30.4 in /  1031.0 hPa NNW 5 mph /  8.0 km/h 5 mph /  8.0 km/h 52 % 0 in /  0.0 mm
05:15 55.9 °F /  13.3 °C 37 °F /  2.8 °C 30.4 in /  1031.0 hPa NNW 6.9 mph /  11.1 km/h 6.9 mph /  11.1 km/h 49 % 0 in /  0.0 mm
05:16 55.9 °F /  13.3 °C 37 °F /  2.8 °C 30.4 in /  1031.0 hPa North 6.9 mph /  11.1 km/h 6.9 mph /  11.1 km/h 49 % 0 in /  0.0 mm
05:19 56.1 °F /  13.4 °C 36.9 °F /  2.7 °C 30.4 in /  1031.0 hPa NNE 9.2 mph /  14.8 km/h 9.2 mph /  14.8 km/h 48 % 0 in /  0.0 mm
05:21 56.5 °F /  13.6 °C 36.9 °F /  2.7 °C 30.4 in /  1031.0 hPa North 10.4 mph /  16.7 km/h 10.4 mph /  16.7 km/h 48 % 0 in /  0.0 mm
05:26 56.5 °F /  13.6 °C 36.9 °F /  2.7 °C 30.4 in /  1031.0 hPa North 5.8 mph /  9.3 km/h 5.8 mph /  9.3 km/h 48 % 0 in /  0.0 mm
05:29 56.3 °F /  13.5 °C 36.9 °F /  2.7 °C 30.4 in /  1030.7 hPa North 8 mph /  12.9 km/h 8 mph /  12.9 km/h 48 % 0 in /  0.0 mm
05:32 56.1 °F /  13.4 °C 36.9 °F /  2.7 °C 30.4 in /  1030.7 hPa NNW 8.1 mph /  13.0 km/h 8.1 mph /  13.0 km/h 48 % 0 in /  0.0 mm
05:34 56.1 °F /  13.4 °C 36.9 °F /  2.7 °C 30.4 in /  1030.7 hPa NNW 10.4 mph /  16.7 km/h 10.4 mph /  16.7 km/h 48 % 0 in /  0.0 mm
05:37 56.1 °F /  13.4 °C 36.9 °F /  2.7 °C 30.4 in /  1030.7 hPa North 9 mph /  14.5 km/h 9 mph /  14.5 km/h 48 % 0 in /  0.0 mm
05:42 55.9 °F /  13.3 °C 36.7 °F /  2.6 °C 30.4 in /  1030.7 hPa North 8.1 mph /  13.0 km/h 8.1 mph /  13.0 km/h 48 % 0 in /  0.0 mm
05:43 55.9 °F /  13.3 °C 36.7 °F /  2.6 °C 30.4 in /  1030.7 hPa NNW 11.5 mph /  18.5 km/h 11.5 mph /  18.5 km/h 48 % 0 in /  0.0 mm
05:44 55.9 °F /  13.3 °C 36.7 °F /  2.6 °C 30.4 in /  1030.7 hPa North 8.1 mph /  13.0 km/h 8.1 mph /  13.0 km/h 48 % 0 in /  0.0 mm
05:49 55.8 °F /  13.2 °C 36.3 °F /  2.4 °C 30.4 in /  1030.7 hPa NNE 10.4 mph /  16.7 km/h 10.4 mph /  16.7 km/h 48 % 0 in /  0.0 mm
05:54 55.8 °F /  13.2 °C 36.3 °F /  2.4 °C 30.4 in /  1030.7 hPa NNE 11.5 mph /  18.5 km/h 11.5 mph /  18.5 km/h 48 % 0 in /  0.0 mm
05:57 55.8 °F /  13.2 °C 36.3 °F /  2.4 °C 30.4 in /  1030.7 hPa North 10.4 mph /  16.7 km/h 10.4 mph /  16.7 km/h 48 % 0 in /  0.0 mm
06:02 55.6 °F /  13.1 °C 36.7 °F /  2.6 °C 30.4 in /  1030.7 hPa North 10.4 mph /  16.7 km/h 10.4 mph /  16.7 km/h 49 % 0 in /  0.0 mm
06:07 55.4 °F /  13.0 °C 36.5 °F /  2.5 °C 30.4 in /  1030.7 hPa NNE 11.5 mph /  18.5 km/h 11.5 mph /  18.5 km/h 49 % 0 in /  0.0 mm
06:08 55.4 °F /  13.0 °C 36 °F /  2.2 °C 30.4 in /  1030.7 hPa North 11.5 mph /  18.5 km/h 11.5 mph /  18.5 km/h 48 % 0 in /  0.0 mm
06:13 55.2 °F /  12.9 °C 36.5 °F /  2.5 °C 30.4 in /  1030.7 hPa North 10.4 mph /  16.7 km/h 10.4 mph /  16.7 km/h 49 % 0 in /  0.0 mm
06:15 55.2 °F /  12.9 °C 36.5 °F /  2.5 °C 30.4 in /  1030.7 hPa North 8.1 mph /  13.0 km/h 8.1 mph /  13.0 km/h 49 % 0 in /  0.0 mm
06:20 55 °F /  12.8 °C 36.1 °F /  2.3 °C 30.4 in /  1031.0 hPa North 11.5 mph /  18.5 km/h 11.5 mph /  18.5 km/h 49 % 0 in /  0.0 mm
06:25 54.9 °F /  12.7 °C 36.1 °F /  2.3 °C 30.4 in /  1031.0 hPa North 8.1 mph /  13.0 km/h 8.1 mph /  13.0 km/h 49 % 0 in /  0.0 mm
06:26 54.9 °F /  12.7 °C 36.1 °F /  2.3 °C 30.4 in /  1031.0 hPa NNE 7 mph /  11.3 km/h 7 mph /  11.3 km/h 49 % 0 in /  0.0 mm
06:31 54.9 °F /  12.7 °C 36 °F /  2.2 °C 30.4 in /  1031.0 hPa North 5 mph /  8.0 km/h 5 mph /  8.0 km/h 49 % 0 in /  0.0 mm
06:32 54.7 °F /  12.6 °C 36 °F /  2.2 °C 30.4 in /  1031.0 hPa North 6 mph /  9.7 km/h 6 mph /  9.7 km/h 49 % 0 in /  0.0 mm
06:37 54.7 °F /  12.6 °C 36.3 °F /  2.4 °C 30.4 in /  1031.0 hPa North 8.1 mph /  13.0 km/h 8.1 mph /  13.0 km/h 50 % 0 in /  0.0 mm
06:38 54.7 °F /  12.6 °C 35.8 °F /  2.1 °C 30.4 in /  1031.0 hPa North 8 mph /  12.9 km/h 8 mph /  12.9 km/h 49 % 0 in /  0.0 mm
06:42 54.7 °F /  12.6 °C 35.8 °F /  2.1 °C 30.4 in /  1031.0 hPa NW 6.9 mph /  11.1 km/h 6.9 mph /  11.1 km/h 49 % 0 in /  0.0 mm
06:46 54.7 °F /  12.6 °C 36.3 °F /  2.4 °C 30.4 in /  1031.0 hPa NNW 4.6 mph /  7.4 km/h 4.6 mph /  7.4 km/h 50 % 0 in /  0.0 mm
06:51 54.5 °F /  12.5 °C 36.7 °F /  2.6 °C 30.5 in /  1031.4 hPa NNW 3.5 mph /  5.6 km/h 3.5 mph /  5.6 km/h 51 % 0 in /  0.0 mm
06:57 54.3 °F /  12.4 °C 39 °F /  3.9 °C 30.5 in /  1031.4 hPa NNW 3.5 mph /  5.6 km/h 3.5 mph /  5.6 km/h 56 % 0 in /  0.0 mm
06:58 54.3 °F /  12.4 °C 38.8 °F /  3.8 °C 30.5 in /  1031.4 hPa NNW 3.5 mph /  5.6 km/h 3.5 mph /  5.6 km/h 56 % 0 in /  0.0 mm
07:03 53.8 °F /  12.1 °C 37.6 °F /  3.1 °C 30.5 in /  1031.4 hPa NNW 3.5 mph /  5.6 km/h 3.5 mph /  5.6 km/h 54 % 0 in /  0.0 mm
07:05 53.8 °F /  12.1 °C 37.4 °F /  3.0 °C 30.5 in /  1031.4 hPa NNW 2 mph /  3.2 km/h 2 mph /  3.2 km/h 54 % 0 in /  0.0 mm
07:10 53.6 °F /  12.0 °C 36.3 °F /  2.4 °C 30.5 in /  1031.4 hPa NNW 3.5 mph /  5.6 km/h 3.5 mph /  5.6 km/h 52 % 0 in /  0.0 mm
07:11 53.6 °F /  12.0 °C 36.9 °F /  2.7 °C 30.5 in /  1031.4 hPa NNW 3.5 mph /  5.6 km/h 3.5 mph /  5.6 km/h 53 % 0 in /  0.0 mm
07:16 53.6 °F /  12.0 °C 37.8 °F /  3.2 °C 30.5 in /  1031.4 hPa NNW 2.3 mph /  3.7 km/h 2.3 mph /  3.7 km/h 55 % 0 in /  0.0 mm
07:21 53.6 °F /  12.0 °C 37.2 °F /  2.9 °C 30.4 in /  1031.0 hPa NNW 3 mph /  4.8 km/h 3 mph /  4.8 km/h 54 % 0 in /  0.0 mm
07:26 53.4 °F /  11.9 °C 36.7 °F /  2.6 °C 30.4 in /  1031.0 hPa NNW 3.5 mph /  5.6 km/h 3.5 mph /  5.6 km/h 53 % 0 in /  0.0 mm
07:27 53.4 °F /  11.9 °C 36.7 °F /  2.6 °C 30.4 in /  1031.0 hPa NNW 3.5 mph /  5.6 km/h 3.5 mph /  5.6 km/h 53 % 0 in /  0.0 mm
07:32 53.4 °F /  11.9 °C 36.7 °F /  2.6 °C 30.5 in /  1031.4 hPa North 4 mph /  6.4 km/h 4.1 mph /  6.6 km/h 53 % 0 in /  0.0 mm
07:34 53.2 °F /  11.8 °C 36.7 °F /  2.6 °C 30.5 in /  1031.4 hPa North 5.8 mph /  9.3 km/h 5.8 mph /  9.3 km/h 53 % 0 in /  0.0 mm
07:36 53.2 °F /  11.8 °C 36.5 °F /  2.5 °C 30.5 in /  1031.4 hPa North 5.8 mph /  9.3 km/h 5.8 mph /  9.3 km/h 53 % 0 in /  0.0 mm
07:39 53.1 °F /  11.7 °C 36.3 °F /  2.4 °C 30.5 in /  1031.4 hPa North 4.6 mph /  7.4 km/h 4.6 mph /  7.4 km/h 53 % 0 in /  0.0 mm
07:44 52.9 °F /  11.6 °C 36.1 °F /  2.3 °C 30.5 in /  1031.7 hPa North 5.8 mph /  9.3 km/h 5.8 mph /  9.3 km/h 53 % 0 in /  0.0 mm
07:45 52.7 °F /  11.5 °C 36 °F /  2.2 °C 30.5 in /  1031.7 hPa North 4.6 mph /  7.4 km/h 4.6 mph /  7.4 km/h 53 % 0 in /  0.0 mm
07:48 52.5 °F /  11.4 °C 36 °F /  2.2 °C 30.5 in /  1031.7 hPa NNW 4.6 mph /  7.4 km/h 4.6 mph /  7.4 km/h 53 % 0 in /  0.0 mm
07:52 52.7 °F /  11.5 °C 36 °F /  2.2 °C 30.5 in /  1031.7 hPa NNW 4.6 mph /  7.4 km/h 4.6 mph /  7.4 km/h 53 % 0 in /  0.0 mm
07:55 52.9 °F /  11.6 °C 36.7 °F /  2.6 °C 30.5 in /  1031.7 hPa NNE 5 mph /  8.0 km/h 5 mph /  8.0 km/h 54 % 0 in /  0.0 mm
08:00 52.9 °F /  11.6 °C 36.1 °F /  2.3 °C 30.5 in /  1031.7 hPa North 3.5 mph /  5.6 km/h 3.5 mph /  5.6 km/h 53 % 0 in /  0.0 mm
08:05 52.7 °F /  11.5 °C 36 °F /  2.2 °C 30.5 in /  1031.7 hPa North 5 mph /  8.0 km/h 5 mph /  8.0 km/h 53 % 0 in /  0.0 mm
08:08 52.5 °F /  11.4 °C 36 °F /  2.2 °C 30.5 in /  1031.7 hPa NNW 5 mph /  8.0 km/h 5 mph /  8.0 km/h 53 % 0 in /  0.0 mm
08:10 52.7 °F /  11.5 °C 36 °F /  2.2 °C 30.5 in /  1031.7 hPa NNW 4.6 mph /  7.4 km/h 4.6 mph /  7.4 km/h 53 % 0 in /  0.0 mm
08:15 52.7 °F /  11.5 °C 36 °F /  2.2 °C 30.5 in /  1031.7 hPa North 3.5 mph /  5.6 km/h 3.5 mph /  5.6 km/h 53 % 0 in /  0.0 mm
08:20 52.9 °F /  11.6 °C 35.8 °F /  2.1 °C 30.5 in /  1031.7 hPa North 4 mph /  6.4 km/h 4 mph /  6.4 km/h 52 % 0 in /  0.0 mm
08:23 53.1 °F /  11.7 °C 35.8 °F /  2.1 °C 30.5 in /  1031.7 hPa NNW 3.5 mph /  5.6 km/h 3.5 mph /  5.6 km/h 52 % 0 in /  0.0 mm
08:28 53.2 °F /  11.8 °C 37 °F /  2.8 °C 30.5 in /  1031.7 hPa NNW 3.5 mph /  5.6 km/h 3.5 mph /  5.6 km/h 54 % 0 in /  0.0 mm
08:32 53.2 °F /  11.8 °C 37.9 °F /  3.3 °C 30.5 in /  1032.1 hPa West 3.5 mph /  5.6 km/h 3.5 mph /  5.6 km/h 56 % 0 in /  0.0 mm
08:34 53.2 °F /  11.8 °C 38.5 °F /  3.6 °C 30.5 in /  1032.1 hPa West 3.5 mph /  5.6 km/h 3.5 mph /  5.6 km/h 57 % 0 in /  0.0 mm
08:39 53.2 °F /  11.8 °C 38.8 °F /  3.8 °C 30.5 in /  1032.1 hPa West 3.5 mph /  5.6 km/h 3.5 mph /  5.6 km/h 58 % 0 in /  0.0 mm
08:40 53.2 °F /  11.8 °C 38.8 °F /  3.8 °C 30.5 in /  1032.1 hPa West 3.5 mph /  5.6 km/h 3.5 mph /  5.6 km/h 58 % 0 in /  0.0 mm
08:45 53.1 °F /  11.7 °C 38.7 °F /  3.7 °C 30.5 in /  1032.1 hPa WNW 3.5 mph /  5.6 km/h 3.5 mph /  5.6 km/h 58 % 0 in /  0.0 mm
08:50 53.1 °F /  11.7 °C 38.7 °F /  3.7 °C 30.5 in /  1032.1 hPa NNW 3.5 mph /  5.6 km/h 3.5 mph /  5.6 km/h 58 % 0 in /  0.0 mm
08:51 53.1 °F /  11.7 °C 38.7 °F /  3.7 °C 30.5 in /  1032.1 hPa North 3.5 mph /  5.6 km/h 3.5 mph /  5.6 km/h 58 % 0 in /  0.0 mm
08:56 53.1 °F /  11.7 °C 38.3 °F /  3.5 °C 30.5 in /  1032.1 hPa NNW 6 mph /  9.7 km/h 6 mph /  9.7 km/h 57 % 0 in /  0.0 mm
08:57 53.1 °F /  11.7 °C 38.3 °F /  3.5 °C 30.5 in /  1032.1 hPa NNW 6 mph /  9.7 km/h 6 mph /  9.7 km/h 57 % 0 in /  0.0 mm
09:02 54.1 °F /  12.3 °C 37.2 °F /  2.9 °C 30.5 in /  1032.4 hPa NNW 5.8 mph /  9.3 km/h 5.8 mph /  9.3 km/h 53 % 0 in /  0.0 mm
09:07 54.9 °F /  12.7 °C 37 °F /  2.8 °C 30.5 in /  1032.1 hPa NNW 9.2 mph /  14.8 km/h 9.2 mph /  14.8 km/h 51 % 0 in /  0.0 mm
09:12 55.2 °F /  12.9 °C 37 °F /  2.8 °C 30.5 in /  1032.4 hPa WNW 6.9 mph /  11.1 km/h 6.9 mph /  11.1 km/h 50 % 0 in /  0.0 mm
09:15 55.4 °F /  13.0 °C 37 °F /  2.8 °C 30.5 in /  1032.4 hPa North 4.6 mph /  7.4 km/h 4.6 mph /  7.4 km/h 50 % 0 in /  0.0 mm
09:20 55.4 °F /  13.0 °C 37 °F /  2.8 °C 30.5 in /  1032.4 hPa North 4.6 mph /  7.4 km/h 4.6 mph /  7.4 km/h 50 % 0 in /  0.0 mm
09:25 55 °F /  12.8 °C 36.9 °F /  2.7 °C 30.5 in /  1032.4 hPa NNW 3.5 mph /  5.6 km/h 3.5 mph /  5.6 km/h 50 % 0 in /  0.0 mm
09:26 55 °F /  12.8 °C 36.3 °F /  2.4 °C 30.5 in /  1032.4 hPa North 6.9 mph /  11.1 km/h 6.9 mph /  11.1 km/h 49 % 0 in /  0.0 mm
09:31 55.2 °F /  12.9 °C 35.8 °F /  2.1 °C 30.5 in /  1032.7 hPa NNW 4.6 mph /  7.4 km/h 4.6 mph /  7.4 km/h 48 % 0 in /  0.0 mm
09:36 55.6 °F /  13.1 °C 36.1 °F /  2.3 °C 30.5 in /  1032.7 hPa NNE 6.9 mph /  11.1 km/h 6.9 mph /  11.1 km/h 48 % 0 in /  0.0 mm
09:41 55.6 °F /  13.1 °C 35.6 °F /  2.0 °C 30.5 in /  1032.4 hPa NNE 3.5 mph /  5.6 km/h 3.5 mph /  5.6 km/h 47 % 0 in /  0.0 mm
09:46 55.8 °F /  13.2 °C 35.8 °F /  2.1 °C 30.5 in /  1032.7 hPa NNE 3.5 mph /  5.6 km/h 3.5 mph /  5.6 km/h 47 % 0 in /  0.0 mm
09:48 55.8 °F /  13.2 °C 36 °F /  2.2 °C 30.5 in /  1032.7 hPa NNE 3.5 mph /  5.6 km/h 3.5 mph /  5.6 km/h 47 % 0 in /  0.0 mm
09:52 55.9 °F /  13.3 °C 36 °F /  2.2 °C 30.5 in /  1033.1 hPa North 5 mph /  8.0 km/h 5 mph /  8.0 km/h 47 % 0 in /  0.0 mm
09:57 56.1 °F /  13.4 °C 36.1 °F /  2.3 °C 30.5 in /  1033.1 hPa North 4 mph /  6.4 km/h 4 mph /  6.4 km/h 47 % 0 in /  0.0 mm
10:02 56.5 °F /  13.6 °C 36.3 °F /  2.4 °C 30.5 in /  1033.1 hPa North 3.5 mph /  5.6 km/h 3.5 mph /  5.6 km/h 47 % 0 in /  0.0 mm
10:03 56.5 °F /  13.6 °C 36.9 °F /  2.7 °C 30.5 in /  1033.1 hPa North 3.5 mph /  5.6 km/h 3.5 mph /  5.6 km/h 48 % 0 in /  0.0 mm
10:08 56.8 °F /  13.8 °C 37.2 °F /  2.9 °C 30.5 in /  1033.1 hPa North 3.5 mph /  5.6 km/h 3.5 mph /  5.6 km/h 48 % 0 in /  0.0 mm
10:12 57.4 °F /  14.1 °C 37.8 °F /  3.2 °C 30.5 in /  1033.1 hPa North 3.5 mph /  5.6 km/h 3.5 mph /  5.6 km/h 48 % 0 in /  0.0 mm
10:14 57.4 °F /  14.1 °C 37.9 °F /  3.3 °C 30.5 in /  1033.1 hPa North 3.5 mph /  5.6 km/h 3.5 mph /  5.6 km/h 48 % 0 in /  0.0 mm
10:19 57.7 °F /  14.3 °C 38.8 °F /  3.8 °C 30.5 in /  1033.1 hPa North 2.3 mph /  3.7 km/h 2.3 mph /  3.7 km/h 49 % 0 in /  0.0 mm
10:20 57.9 °F /  14.4 °C 38.8 °F /  3.8 °C 30.5 in /  1033.1 hPa North 2.3 mph /  3.7 km/h 2.3 mph /  3.7 km/h 49 % 0 in /  0.0 mm
10:21 57.9 °F /  14.4 °C 38.8 °F /  3.8 °C 30.5 in /  1033.1 hPa North 3.5 mph /  5.6 km/h 3.5 mph /  5.6 km/h 49 % 0 in /  0.0 mm
10:26 58.3 °F /  14.6 °C 38.7 °F /  3.7 °C 30.5 in /  1033.1 hPa North 2.3 mph /  3.7 km/h 2.3 mph /  3.7 km/h 48 % 0 in /  0.0 mm
10:31 58.5 °F /  14.7 °C 38.3 °F /  3.5 °C 30.5 in /  1033.4 hPa North 2.3 mph /  3.7 km/h 2.3 mph /  3.7 km/h 47 % 0 in /  0.0 mm
10:33 58.6 °F /  14.8 °C 37.9 °F /  3.3 °C 30.5 in /  1033.4 hPa North 2.3 mph /  3.7 km/h 2.3 mph /  3.7 km/h 46 % 0 in /  0.0 mm
10:38 58.8 °F /  14.9 °C 37.6 °F /  3.1 °C 30.5 in /  1033.4 hPa North 2.3 mph /  3.7 km/h 2.3 mph /  3.7 km/h 45 % 0 in /  0.0 mm
10:40 59 °F /  15.0 °C 38.1 °F /  3.4 °C 30.5 in /  1033.4 hPa North 3.5 mph /  5.6 km/h 3.5 mph /  5.6 km/h 46 % 0 in /  0.0 mm
10:43 59.2 °F /  15.1 °C 38.5 °F /  3.6 °C 30.5 in /  1033.7 hPa North 4.6 mph /  7.4 km/h 4.6 mph /  7.4 km/h 46 % 0 in /  0.0 mm
10:45 59.4 °F /  15.2 °C 38.7 °F /  3.7 °C 30.5 in /  1033.7 hPa North 4.6 mph /  7.4 km/h 4.6 mph /  7.4 km/h 46 % 0 in /  0.0 mm
10:50 59.7 °F /  15.4 °C 38.8 °F /  3.8 °C 30.5 in /  1033.7 hPa NNE 3.5 mph /  5.6 km/h 3.5 mph /  5.6 km/h 46 % 0 in /  0.0 mm
10:51 59.7 °F /  15.4 °C 39 °F /  3.9 °C 30.5 in /  1033.7 hPa NNE 2.3 mph /  3.7 km/h 2.3 mph /  3.7 km/h 46 % 0 in /  0.0 mm
10:56 60.1 °F /  15.6 °C 39.7 °F /  4.3 °C 30.5 in /  1033.7 hPa Calm     47 % 0 in /  0.0 mm
11:01 60.4 °F /  15.8 °C 39.6 °F /  4.2 °C 30.5 in /  1033.7 hPa Calm     46 % 0 in /  0.0 mm
11:05 60.4 °F /  15.8 °C 39.6 °F /  4.2 °C 30.5 in /  1033.7 hPa Calm     46 % 0 in /  0.0 mm
11:08 60.4 °F /  15.8 °C 40.6 °F /  4.8 °C 30.5 in /  1033.7 hPa NE 3.5 mph /  5.6 km/h 3.5 mph /  5.6 km/h 48 % 0 in /  0.0 mm
11:13 60.3 °F /  15.7 °C 40.5 °F /  4.7 °C 30.5 in /  1033.7 hPa Calm     48 % 0 in /  0.0 mm
11:17 60.4 °F /  15.8 °C 41.7 °F /  5.4 °C 30.5 in /  1033.7 hPa Calm     50 % 0 in /  0.0 mm
11:19 60.6 °F /  15.9 °C 41.4 °F /  5.2 °C 30.5 in /  1033.7 hPa Calm     49 % 0 in /  0.0 mm
11:22 60.8 °F /  16.0 °C 43.2 °F /  6.2 °C 30.5 in /  1033.7 hPa NE 3 mph /  4.8 km/h 3 mph /  4.8 km/h 52 % 0 in /  0.0 mm
11:24 61 °F /  16.1 °C 44.6 °F /  7.0 °C 30.5 in /  1034.1 hPa NE 3.5 mph /  5.6 km/h 3.5 mph /  5.6 km/h 55 % 0 in /  0.0 mm
11:29 61.2 °F /  16.2 °C 43.9 °F /  6.6 °C 30.5 in /  1033.7 hPa Calm     53 % 0 in /  0.0 mm
11:32 61.3 °F /  16.3 °C 43.5 °F /  6.4 °C 30.5 in /  1033.7 hPa Calm     52 % 0 in /  0.0 mm
11:37 61.7 °F /  16.5 °C 45 °F /  7.2 °C 30.5 in /  1033.7 hPa ENE 3.5 mph /  5.6 km/h 3.5 mph /  5.6 km/h 54 % 0 in /  0.0 mm
11:42 61.9 °F /  16.6 °C 45.9 °F /  7.7 °C 30.5 in /  1033.7 hPa ENE 3.5 mph /  5.6 km/h 3.5 mph /  5.6 km/h 56 % 0 in /  0.0 mm
11:43 61.9 °F /  16.6 °C 46.4 °F /  8.0 °C 30.5 in /  1033.7 hPa ENE 3.5 mph /  5.6 km/h 3.5 mph /  5.6 km/h 57 % 0 in /  0.0 mm
11:48 61.7 °F /  16.5 °C 45.9 °F /  7.7 °C 30.5 in /  1033.7 hPa ENE 1.2 mph /  1.9 km/h   56 % 0 in /  0.0 mm
11:51 61.9 °F /  16.6 °C 46.9 °F /  8.3 °C 30.5 in /  1033.7 hPa East 3.5 mph /  5.6 km/h 3.5 mph /  5.6 km/h 58 % 0 in /  0.0 mm
11:55 61.7 °F /  16.5 °C 47.7 °F /  8.7 °C 30.5 in /  1033.7 hPa South 4 mph /  6.4 km/h 4 mph /  6.4 km/h 60 % 0 in /  0.0 mm
11:56 61.7 °F /  16.5 °C 48 °F /  8.9 °C 30.5 in /  1033.7 hPa South 3.5 mph /  5.6 km/h 3.6 mph /  5.8 km/h 61 % 0 in /  0.0 mm
12:01 61.5 °F /  16.4 °C 48.4 °F /  9.1 °C 30.5 in /  1033.7 hPa South 2.3 mph /  3.7 km/h 2.3 mph /  3.7 km/h 62 % 0 in /  0.0 mm
12:06 61.3 °F /  16.3 °C 47.5 °F /  8.6 °C 30.5 in /  1033.7 hPa South 2.3 mph /  3.7 km/h 2.3 mph /  3.7 km/h 60 % 0 in /  0.0 mm
12:09 61.3 °F /  16.3 °C 46.9 °F /  8.3 °C 30.5 in /  1033.7 hPa South 2.3 mph /  3.7 km/h 2.3 mph /  3.7 km/h 59 % 0 in /  0.0 mm
12:12 61.5 °F /  16.4 °C 48 °F /  8.9 °C 30.5 in /  1033.7 hPa South 2 mph /  3.2 km/h 2 mph /  3.2 km/h 61 % 0 in /  0.0 mm
12:14 61.7 °F /  16.5 °C 47.7 °F /  8.7 °C 30.5 in /  1033.7 hPa South 2.3 mph /  3.7 km/h 2.3 mph /  3.7 km/h 60 % 0 in /  0.0 mm
12:19 61.9 °F /  16.6 °C 49.3 °F /  9.6 °C 30.5 in /  1033.7 hPa South 2.3 mph /  3.7 km/h 2.3 mph /  3.7 km/h 63 % 0 in /  0.0 mm
12:21 62.1 °F /  16.7 °C 49.6 °F /  9.8 °C 30.5 in /  1033.7 hPa South 2.3 mph /  3.7 km/h 2.3 mph /  3.7 km/h 64 % 0 in /  0.0 mm
12:25 62.1 °F /  16.7 °C 49.8 °F /  9.9 °C 30.5 in /  1033.4 hPa South 2.3 mph /  3.7 km/h 2.3 mph /  3.7 km/h 64 % 0 in /  0.0 mm
12:30 62.1 °F /  16.7 °C 49.8 °F /  9.9 °C 30.5 in /  1033.4 hPa South 2.3 mph /  3.7 km/h 2.3 mph /  3.7 km/h 64 % 0 in /  0.0 mm
12:31 62.1 °F /  16.7 °C 49.6 °F /  9.8 °C 30.5 in /  1033.4 hPa South 3 mph /  4.8 km/h 3 mph /  4.8 km/h 64 % 0 in /  0.0 mm
12:36 61.9 °F /  16.6 °C 48.4 °F /  9.1 °C 30.5 in /  1033.4 hPa SSW 4 mph /  6.4 km/h 4 mph /  6.4 km/h 61 % 0 in /  0.0 mm
12:37 61.9 °F /  16.6 °C 48.2 °F /  9.0 °C 30.5 in /  1033.4 hPa SSW 4 mph /  6.4 km/h 4 mph /  6.4 km/h 61 % 0 in /  0.0 mm
12:43 61.7 °F /  16.5 °C 49.5 °F /  9.7 °C 30.5 in /  1033.4 hPa SW 4 mph /  6.4 km/h 4 mph /  6.4 km/h 64 % 0 in /  0.0 mm
12:48 61.3 °F /  16.3 °C 49.5 °F /  9.7 °C 30.5 in /  1033.1 hPa WSW 3.5 mph /  5.6 km/h 3.5 mph /  5.6 km/h 65 % 0 in /  0.0 mm
12:49 61.3 °F /  16.3 °C 49.5 °F /  9.7 °C 30.5 in /  1033.1 hPa WSW 3.5 mph /  5.6 km/h 3.5 mph /  5.6 km/h 65 % 0 in /  0.0 mm
12:54 61.3 °F /  16.3 °C 49.8 °F /  9.9 °C 30.5 in /  1033.4 hPa SW 5.8 mph /  9.3 km/h 5.8 mph /  9.3 km/h 66 % 0 in /  0.0 mm
12:58 61.3 °F /  16.3 °C 50.2 °F /  10.1 °C 30.5 in /  1033.4 hPa SW 4.6 mph /  7.4 km/h 4.8 mph /  7.7 km/h 67 % 0 in /  0.0 mm
13:01 61.2 °F /  16.2 °C 50.9 °F /  10.5 °C 30.5 in /  1033.4 hPa SW 4.6 mph /  7.4 km/h 4.6 mph /  7.4 km/h 69 % 0 in /  0.0 mm
13:06 61 °F /  16.1 °C 50.4 °F /  10.2 °C 30.5 in /  1033.1 hPa SW 5.8 mph /  9.3 km/h 5.8 mph /  9.3 km/h 68 % 0 in /  0.0 mm
13:09 60.8 °F /  16.0 °C 50.5 °F /  10.3 °C 30.5 in /  1033.1 hPa SW 5.8 mph /  9.3 km/h 5.8 mph /  9.3 km/h 69 % 0 in /  0.0 mm
13:11 60.6 °F /  15.9 °C 50.5 °F /  10.3 °C 30.5 in /  1033.1 hPa WSW 7 mph /  11.3 km/h 7 mph /  11.3 km/h 69 % 0 in /  0.0 mm
13:14 60.6 °F /  15.9 °C 50.9 °F /  10.5 °C 30.5 in /  1033.1 hPa SW 8.1 mph /  13.0 km/h 8.1 mph /  13.0 km/h 70 % 0 in /  0.0 mm
13:19 60.6 °F /  15.9 °C 51.3 °F /  10.7 °C 30.5 in /  1032.7 hPa WSW 7 mph /  11.3 km/h 7 mph /  11.3 km/h 71 % 0 in /  0.0 mm
13:20 60.6 °F /  15.9 °C 51.3 °F /  10.7 °C 30.5 in /  1032.7 hPa WSW 7 mph /  11.3 km/h 7 mph /  11.3 km/h 71 % 0 in /  0.0 mm
13:25 60.6 °F /  15.9 °C 52 °F /  11.1 °C 30.5 in /  1032.7 hPa WSW 6 mph /  9.7 km/h 6 mph /  9.7 km/h 73 % 0 in /  0.0 mm
13:27 60.6 °F /  15.9 °C 52 °F /  11.1 °C 30.5 in /  1032.7 hPa WSW 6 mph /  9.7 km/h 6 mph /  9.7 km/h 73 % 0 in /  0.0 mm
13:31 60.4 °F /  15.8 °C 52.2 °F /  11.2 °C 30.5 in /  1032.7 hPa WSW 6.9 mph /  11.1 km/h 6.9 mph /  11.1 km/h 74 % 0 in /  0.0 mm
13:36 60.4 °F /  15.8 °C 52.2 °F /  11.2 °C 30.5 in /  1032.7 hPa SW 6 mph /  9.7 km/h 6 mph /  9.7 km/h 74 % 0 in /  0.0 mm
13:41 60.3 °F /  15.7 °C 52.3 °F /  11.3 °C 30.5 in /  1032.7 hPa WSW 8.1 mph /  13.0 km/h 8.1 mph /  13.0 km/h 75 % 0 in /  0.0 mm
13:46 60.1 °F /  15.6 °C 52.2 °F /  11.2 °C 30.5 in /  1032.7 hPa WSW 6 mph /  9.7 km/h 6 mph /  9.7 km/h 75 % 0 in /  0.0 mm
13:51 59.7 °F /  15.4 °C 51.4 °F /  10.8 °C 30.5 in /  1032.4 hPa WSW 4.6 mph /  7.4 km/h 4.6 mph /  7.4 km/h 74 % 0 in /  0.0 mm
13:52 59.7 °F /  15.4 °C 51.4 °F /  10.8 °C 30.5 in /  1032.4 hPa WSW 6 mph /  9.7 km/h 6 mph /  9.7 km/h 74 % 0 in /  0.0 mm
13:55 59.5 °F /  15.3 °C 50.7 °F /  10.4 °C 30.5 in /  1032.4 hPa WSW 6 mph /  9.7 km/h 6 mph /  9.7 km/h 73 % 0 in /  0.0 mm
13:57 59.4 °F /  15.2 °C 50.7 °F /  10.4 °C 30.5 in /  1032.4 hPa WSW 6.9 mph /  11.1 km/h 6.9 mph /  11.1 km/h 73 % 0 in /  0.0 mm
14:02 59.4 °F /  15.2 °C 50.4 °F /  10.2 °C 30.5 in /  1032.4 hPa SW 6.9 mph /  11.1 km/h 6.9 mph /  11.1 km/h 72 % 0 in /  0.0 mm
14:07 59.5 °F /  15.3 °C 50.2 °F /  10.1 °C 30.5 in /  1032.4 hPa WSW 8.1 mph /  13.0 km/h 8.1 mph /  13.0 km/h 71 % 0 in /  0.0 mm
14:08 59.5 °F /  15.3 °C 49.6 °F /  9.8 °C 30.5 in /  1032.4 hPa WSW 8.1 mph /  13.0 km/h 8.1 mph /  13.0 km/h 70 % 0 in /  0.0 mm
14:13 59.4 °F /  15.2 °C 49.3 °F /  9.6 °C 30.5 in /  1032.1 hPa WSW 6 mph /  9.7 km/h 6 mph /  9.7 km/h 69 % 0 in /  0.0 mm
14:15 59.4 °F /  15.2 °C 48.7 °F /  9.3 °C 30.5 in /  1032.1 hPa WSW 5.8 mph /  9.3 km/h 5.8 mph /  9.3 km/h 68 % 0 in /  0.0 mm
14:18 59.2 °F /  15.1 °C 47.8 °F /  8.8 °C 30.5 in /  1032.1 hPa WSW 5.8 mph /  9.3 km/h 5.8 mph /  9.3 km/h 66 % 0 in /  0.0 mm
14:22 59.5 °F /  15.3 °C 48.6 °F /  9.2 °C 30.5 in /  1032.1 hPa SW 6.9 mph /  11.1 km/h 6.9 mph /  11.1 km/h 67 % 0 in /  0.0 mm
14:24 59.7 °F /  15.4 °C 49.1 °F /  9.5 °C 30.5 in /  1032.1 hPa SW 6 mph /  9.7 km/h 6 mph /  9.7 km/h 68 % 0 in /  0.0 mm
14:27 59.9 °F /  15.5 °C 49.3 °F /  9.6 °C 30.5 in /  1032.1 hPa WSW 6.9 mph /  11.1 km/h 6.9 mph /  11.1 km/h 68 % 0 in /  0.0 mm
14:30 59.7 °F /  15.4 °C 48.7 °F /  9.3 °C 30.5 in /  1032.1 hPa WSW 6.9 mph /  11.1 km/h 6.9 mph /  11.1 km/h 67 % 0 in /  0.0 mm
14:34 59.7 °F /  15.4 °C 48.7 °F /  9.3 °C 30.5 in /  1031.7 hPa WSW 5.8 mph /  9.3 km/h 5.8 mph /  9.3 km/h 67 % 0 in /  0.0 mm
14:38 59.9 °F /  15.5 °C 48 °F /  8.9 °C 30.5 in /  1031.7 hPa WSW 5.8 mph /  9.3 km/h 5.8 mph /  9.3 km/h 65 % 0 in /  0.0 mm
14:40 60.1 °F /  15.6 °C 47.8 °F /  8.8 °C 30.5 in /  1031.7 hPa WSW 5 mph /  8.0 km/h 5 mph /  8.0 km/h 64 % 0 in /  0.0 mm
14:43 60.4 °F /  15.8 °C 47.7 °F /  8.7 °C 30.5 in /  1031.7 hPa SW 6 mph /  9.7 km/h 6.2 mph /  10.0 km/h 63 % 0 in /  0.0 mm
14:48 60.8 °F /  16.0 °C 48.9 °F /  9.4 °C 30.5 in /  1031.7 hPa SW 5.8 mph /  9.3 km/h 5.8 mph /  9.3 km/h 65 % 0 in /  0.0 mm
14:50 60.8 °F /  16.0 °C 48.6 °F /  9.2 °C 30.5 in /  1031.7 hPa WSW 5.8 mph /  9.3 km/h 5.8 mph /  9.3 km/h 64 % 0 in /  0.0 mm
14:51 60.8 °F /  16.0 °C 48.6 °F /  9.2 °C 30.5 in /  1031.7 hPa WSW 4.6 mph /  7.4 km/h 4.6 mph /  7.4 km/h 64 % 0 in /  0.0 mm
14:56 60.6 °F /  15.9 °C 47.7 °F /  8.7 °C 30.5 in /  1031.4 hPa WSW 5 mph /  8.0 km/h 5 mph /  8.0 km/h 62 % 0 in /  0.0 mm
14:59 60.6 °F /  15.9 °C 47.7 °F /  8.7 °C 30.5 in /  1031.4 hPa WSW 4.6 mph /  7.4 km/h 4.6 mph /  7.4 km/h 62 % 0 in /  0.0 mm
15:04 61 °F /  16.1 °C 49.1 °F /  9.5 °C 30.5 in /  1031.7 hPa WSW 4.6 mph /  7.4 km/h 4.6 mph /  7.4 km/h 65 % 0 in /  0.0 mm
15:06 61 °F /  16.1 °C 48.7 °F /  9.3 °C 30.5 in /  1031.7 hPa SW 4.6 mph /  7.4 km/h 4.6 mph /  7.4 km/h 64 % 0 in /  0.0 mm
15:11 61 °F /  16.1 °C 48.7 °F /  9.3 °C 30.5 in /  1031.4 hPa WSW 6 mph /  9.7 km/h 6 mph /  9.7 km/h 64 % 0 in /  0.0 mm
15:16 61 °F /  16.1 °C 49.8 °F /  9.9 °C 30.4 in /  1031.0 hPa WSW 4.6 mph /  7.4 km/h 4.6 mph /  7.4 km/h 67 % 0 in /  0.0 mm
15:19 60.6 °F /  15.9 °C 49.3 °F /  9.6 °C 30.4 in /  1031.0 hPa WSW 5 mph /  8.0 km/h 5 mph /  8.0 km/h 66 % 0 in /  0.0 mm
15:20 60.6 °F /  15.9 °C 49.3 °F /  9.6 °C 30.4 in /  1031.0 hPa WSW 4.6 mph /  7.4 km/h 4.6 mph /  7.4 km/h 66 % 0 in /  0.0 mm
15:25 60.6 °F /  15.9 °C 48.7 °F /  9.3 °C 30.5 in /  1031.4 hPa SW 5.8 mph /  9.3 km/h 5.8 mph /  9.3 km/h 65 % 0 in /  0.0 mm
15:26 60.6 °F /  15.9 °C 48.7 °F /  9.3 °C 30.5 in /  1031.4 hPa SW 6.9 mph /  11.1 km/h 6.9 mph /  11.1 km/h 65 % 0 in /  0.0 mm
15:31 60.6 °F /  15.9 °C 50.2 °F /  10.1 °C 30.5 in /  1031.4 hPa SW 4 mph /  6.4 km/h 4 mph /  6.4 km/h 68 % 0 in /  0.0 mm
15:36 60.4 °F /  15.8 °C 49.5 °F /  9.7 °C 30.5 in /  1031.4 hPa SW 3.5 mph /  5.6 km/h 3.5 mph /  5.6 km/h 67 % 0 in /  0.0 mm
15:37 60.4 °F /  15.8 °C 49.5 °F /  9.7 °C 30.4 in /  1031.0 hPa SW 3.5 mph /  5.6 km/h 3.5 mph /  5.6 km/h 67 % 0 in /  0.0 mm
15:42 60.4 °F /  15.8 °C 49.5 °F /  9.7 °C 30.4 in /  1031.0 hPa SW 4 mph /  6.4 km/h 4 mph /  6.4 km/h 67 % 0 in /  0.0 mm
15:43 60.4 °F /  15.8 °C 49.1 °F /  9.5 °C 30.4 in /  1031.0 hPa SW 3.5 mph /  5.6 km/h 3.5 mph /  5.6 km/h 66 % 0 in /  0.0 mm
15:48 60.6 °F /  15.9 °C 49.3 °F /  9.6 °C 30.4 in /  1031.0 hPa SW 4 mph /  6.4 km/h 4 mph /  6.4 km/h 66 % 0 in /  0.0 mm
15:53 60.6 °F /  15.9 °C 48.9 °F /  9.4 °C 30.4 in /  1031.0 hPa SW 3.5 mph /  5.6 km/h 3.5 mph /  5.6 km/h 65 % 0 in /  0.0 mm
15:58 61 °F /  16.1 °C 49.1 °F /  9.5 °C 30.4 in /  1031.0 hPa SW 3.5 mph /  5.6 km/h 3.5 mph /  5.6 km/h 65 % 0 in /  0.0 mm
15:59 61 °F /  16.1 °C 48.7 °F /  9.3 °C 30.4 in /  1031.0 hPa SW 3.5 mph /  5.6 km/h 3.5 mph /  5.6 km/h 64 % 0 in /  0.0 mm
16:04 61.3 °F /  16.3 °C 48.7 °F /  9.3 °C 30.4 in /  1031.0 hPa SW 3.5 mph /  5.6 km/h 3.5 mph /  5.6 km/h 63 % 0 in /  0.0 mm
16:05 61.5 °F /  16.4 °C 48.7 °F /  9.3 °C 30.4 in /  1031.0 hPa SW 4 mph /  6.4 km/h 4 mph /  6.4 km/h 63 % 0 in /  0.0 mm
16:07 61.7 °F /  16.5 °C 49.8 °F /  9.9 °C 30.4 in /  1030.7 hPa SW 5 mph /  8.0 km/h 5 mph /  8.0 km/h 65 % 0 in /  0.0 mm
16:12 61.9 °F /  16.6 °C 52 °F /  11.1 °C 30.4 in /  1030.7 hPa SW 5.8 mph /  9.3 km/h 5.8 mph /  9.3 km/h 70 % 0 in /  0.0 mm
16:13 61.9 °F /  16.6 °C 52 °F /  11.1 °C 30.4 in /  1030.7 hPa SW 5.8 mph /  9.3 km/h 5.8 mph /  9.3 km/h 70 % 0 in /  0.0 mm
16:15 61.9 °F /  16.6 °C 52.3 °F /  11.3 °C 30.4 in /  1030.7 hPa SW 3 mph /  4.8 km/h 6 mph /  9.7 km/h 71 % 0 in /  0.0 mm
16:20 61.5 °F /  16.4 °C 51.6 °F /  10.9 °C 30.4 in /  1030.7 hPa SW 4.6 mph /  7.4 km/h 4.6 mph /  7.4 km/h 70 % 0 in /  0.0 mm
16:21 61.5 °F /  16.4 °C 51.6 °F /  10.9 °C 30.4 in /  1030.7 hPa SW 5.8 mph /  9.3 km/h 5.8 mph /  9.3 km/h 70 % 0 in /  0.0 mm
16:22 61.5 °F /  16.4 °C 51.6 °F /  10.9 °C 30.4 in /  1030.7 hPa SW 5 mph /  8.0 km/h 5 mph /  8.0 km/h 70 % 0 in /  0.0 mm
16:27 61.3 °F /  16.3 °C 52 °F /  11.1 °C 30.4 in /  1030.7 hPa SW 4.6 mph /  7.4 km/h 4.6 mph /  7.4 km/h 71 % 0 in /  0.0 mm
16:28 61.3 °F /  16.3 °C 52 °F /  11.1 °C 30.4 in /  1030.7 hPa SW 5 mph /  8.0 km/h 5 mph /  8.0 km/h 71 % 0 in /  0.0 mm
16:33 61.3 °F /  16.3 °C 52.7 °F /  11.5 °C 30.4 in /  1030.7 hPa SW 3.5 mph /  5.6 km/h 3.5 mph /  5.6 km/h 73 % 0 in /  0.0 mm
16:37 61.3 °F /  16.3 °C 52.7 °F /  11.5 °C 30.4 in /  1030.7 hPa SW 4 mph /  6.4 km/h 4 mph /  6.4 km/h 73 % 0 in /  0.0 mm
16:41 61 °F /  16.1 °C 51.4 °F /  10.8 °C 30.4 in /  1030.7 hPa WSW 4.6 mph /  7.4 km/h 4.6 mph /  7.4 km/h 71 % 0 in /  0.0 mm
16:42 61 °F /  16.1 °C 51.4 °F /  10.8 °C 30.4 in /  1030.7 hPa WSW 4.6 mph /  7.4 km/h 4.6 mph /  7.4 km/h 71 % 0 in /  0.0 mm
16:46 61 °F /  16.1 °C 51.4 °F /  10.8 °C 30.4 in /  1030.7 hPa WSW 3.5 mph /  5.6 km/h 3.5 mph /  5.6 km/h 71 % 0 in /  0.0 mm
16:50 61 °F /  16.1 °C 50.4 °F /  10.2 °C 30.4 in /  1030.7 hPa WSW 3.5 mph /  5.6 km/h 3.5 mph /  5.6 km/h 68 % 0 in /  0.0 mm
16:52 61 °F /  16.1 °C 50.4 °F /  10.2 °C 30.4 in /  1031.0 hPa WSW 3.5 mph /  5.6 km/h 3.5 mph /  5.6 km/h 68 % 0 in /  0.0 mm
16:57 61.3 °F /  16.3 °C 50.2 °F /  10.1 °C 30.4 in /  1031.0 hPa WSW 5 mph /  8.0 km/h 5 mph /  8.0 km/h 67 % 0 in /  0.0 mm
17:00 61.3 °F /  16.3 °C 50.7 °F /  10.4 °C 30.4 in /  1031.0 hPa WSW 3.5 mph /  5.6 km/h 3.5 mph /  5.6 km/h 68 % 0 in /  0.0 mm
17:01 61.3 °F /  16.3 °C 50.7 °F /  10.4 °C 30.4 in /  1031.0 hPa WSW 3.5 mph /  5.6 km/h 3.5 mph /  5.6 km/h 68 % 0 in /  0.0 mm
17:05 61.5 °F /  16.4 °C 51.3 °F /  10.7 °C 30.4 in /  1031.0 hPa WSW 4.6 mph /  7.4 km/h 4.6 mph /  7.4 km/h 69 % 0 in /  0.0 mm
17:10 61.5 °F /  16.4 °C 51.6 °F /  10.9 °C 30.4 in /  1031.0 hPa WSW 3.5 mph /  5.6 km/h 3.5 mph /  5.6 km/h 70 % 0 in /  0.0 mm
17:11 61.5 °F /  16.4 °C 51.6 °F /  10.9 °C 30.4 in /  1031.0 hPa WSW 3.5 mph /  5.6 km/h 3.5 mph /  5.6 km/h 70 % 0 in /  0.0 mm
17:16 61.3 °F /  16.3 °C 51.4 °F /  10.8 °C 30.4 in /  1031.0 hPa WSW 3.5 mph /  5.6 km/h 3.5 mph /  5.6 km/h 70 % 0 in /  0.0 mm
17:17 61.3 °F /  16.3 °C 51.4 °F /  10.8 °C 30.4 in /  1031.0 hPa WSW 3.5 mph /  5.6 km/h 3.5 mph /  5.6 km/h 70 % 0 in /  0.0 mm
17:22 61.2 °F /  16.2 °C 51.6 °F /  10.9 °C 30.4 in /  1031.0 hPa WSW 5 mph /  8.0 km/h 5 mph /  8.0 km/h 71 % 0 in /  0.0 mm
17:23 61.2 °F /  16.2 °C 51.6 °F /  10.9 °C 30.4 in /  1031.0 hPa WSW 4.6 mph /  7.4 km/h 4.6 mph /  7.4 km/h 71 % 0 in /  0.0 mm
17:28 61.2 °F /  16.2 °C 51.6 °F /  10.9 °C 30.5 in /  1031.4 hPa WSW 5 mph /  8.0 km/h 5 mph /  8.0 km/h 71 % 0 in /  0.0 mm
17:29 61 °F /  16.1 °C 51.4 °F /  10.8 °C 30.5 in /  1031.4 hPa WSW 4.6 mph /  7.4 km/h 4.6 mph /  7.4 km/h 71 % 0 in /  0.0 mm
17:34 60.8 °F /  16.0 °C 50.5 °F /  10.3 °C 30.5 in /  1031.4 hPa WSW 4 mph /  6.4 km/h 4 mph /  6.4 km/h 69 % 0 in /  0.0 mm
17:36 60.8 °F /  16.0 °C 50.2 °F /  10.1 °C 30.5 in /  1031.4 hPa WSW 3.5 mph /  5.6 km/h 3.5 mph /  5.6 km/h 68 % 0 in /  0.0 mm
17:38 60.6 °F /  15.9 °C 49.6 °F /  9.8 °C 30.5 in /  1031.4 hPa WSW 4 mph /  6.4 km/h 4 mph /  6.4 km/h 67 % 0 in /  0.0 mm
17:43 60.6 °F /  15.9 °C 48.9 °F /  9.4 °C 30.4 in /  1031.0 hPa WSW 4 mph /  6.4 km/h 4 mph /  6.4 km/h 65 % 0 in /  0.0 mm
17:44 60.8 °F /  16.0 °C 49.5 °F /  9.7 °C 30.4 in /  1031.0 hPa WSW 3.5 mph /  5.6 km/h 3.5 mph /  5.6 km/h 66 % 0 in /  0.0 mm
17:49 61.2 °F /  16.2 °C 51.3 °F /  10.7 °C 30.4 in /  1031.0 hPa WSW 4 mph /  6.4 km/h 4 mph /  6.4 km/h 70 % 0 in /  0.0 mm
17:54 61.2 °F /  16.2 °C 51.6 °F /  10.9 °C 30.4 in /  1031.0 hPa WSW 4 mph /  6.4 km/h 4 mph /  6.4 km/h 71 % 0 in /  0.0 mm
17:58 61 °F /  16.1 °C 51.1 °F /  10.6 °C 30.4 in /  1031.0 hPa WSW 4.6 mph /  7.4 km/h 4.6 mph /  7.4 km/h 70 % 0 in /  0.0 mm
18:01 60.8 °F /  16.0 °C 51.1 °F /  10.6 °C 30.4 in /  1031.0 hPa WSW 5.8 mph /  9.3 km/h 5.8 mph /  9.3 km/h 70 % 0 in /  0.0 mm
18:04 60.6 °F /  15.9 °C 50.5 °F /  10.3 °C 30.4 in /  1031.0 hPa WSW 5 mph /  8.0 km/h 5 mph /  8.0 km/h 69 % 0 in /  0.0 mm
18:06 60.4 °F /  15.8 °C 49.8 °F /  9.9 °C 30.4 in /  1031.0 hPa WSW 5.8 mph /  9.3 km/h 5.8 mph /  9.3 km/h 68 % 0 in /  0.0 mm
18:11 60.3 °F /  15.7 °C 48.9 °F /  9.4 °C 30.4 in /  1031.0 hPa WSW 8.1 mph /  13.0 km/h 8.1 mph /  13.0 km/h 66 % 0 in /  0.0 mm
18:12 60.3 °F /  15.7 °C 48.6 °F /  9.2 °C 30.4 in /  1031.0 hPa WSW 6.9 mph /  11.1 km/h 6.9 mph /  11.1 km/h 65 % 0 in /  0.0 mm
18:17 60.3 °F /  15.7 °C 48.7 °F /  9.3 °C 30.4 in /  1031.0 hPa West 3.5 mph /  5.6 km/h 3.5 mph /  5.6 km/h 66 % 0 in /  0.0 mm
18:19 60.3 °F /  15.7 °C 48.7 °F /  9.3 °C 30.4 in /  1031.0 hPa West 3.5 mph /  5.6 km/h 3.5 mph /  5.6 km/h 66 % 0 in /  0.0 mm
18:22 60.1 °F /  15.6 °C 48.4 °F /  9.1 °C 30.4 in /  1031.0 hPa Calm     65 % 0 in /  0.0 mm
18:27 60.1 °F /  15.6 °C 49.8 °F /  9.9 °C 30.5 in /  1031.4 hPa Calm     69 % 0 in /  0.0 mm
18:28 60.1 °F /  15.6 °C 49.8 °F /  9.9 °C 30.5 in /  1031.4 hPa Calm     69 % 0 in /  0.0 mm
18:33 59.7 °F /  15.4 °C 49.8 °F /  9.9 °C 30.4 in /  1031.0 hPa Calm     70 % 0 in /  0.0 mm
18:36 59.5 °F /  15.3 °C 49.6 °F /  9.8 °C 30.4 in /  1031.0 hPa Calm     70 % 0 in /  0.0 mm
18:37 59.5 °F /  15.3 °C 49.6 °F /  9.8 °C 30.5 in /  1031.4 hPa Calm     70 % 0 in /  0.0 mm
18:42 59.4 °F /  15.2 °C 49.5 °F /  9.7 °C 30.4 in /  1031.0 hPa NW 3.5 mph /  5.6 km/h 3.5 mph /  5.6 km/h 70 % 0 in /  0.0 mm
18:44 59.2 °F /  15.1 °C 48.9 °F /  9.4 °C 30.4 in /  1031.0 hPa NNW 3.5 mph /  5.6 km/h 3.5 mph /  5.6 km/h 69 % 0 in /  0.0 mm
18:48 58.8 °F /  14.9 °C 48.4 °F /  9.1 °C 30.4 in /  1031.0 hPa NNW 3.5 mph /  5.6 km/h 3.5 mph /  5.6 km/h 68 % 0 in /  0.0 mm
18:49 58.8 °F /  14.9 °C 48.6 °F /  9.2 °C 30.4 in /  1031.0 hPa NNW 3.5 mph /  5.6 km/h 3.5 mph /  5.6 km/h 69 % 0 in /  0.0 mm
18:54 58.5 °F /  14.7 °C 47.5 °F /  8.6 °C 30.4 in /  1031.0 hPa North 4.6 mph /  7.4 km/h 4.6 mph /  7.4 km/h 67 % 0 in /  0.0 mm
18:55 58.5 °F /  14.7 °C 47.5 °F /  8.6 °C 30.4 in /  1031.0 hPa North 4.6 mph /  7.4 km/h 4.6 mph /  7.4 km/h 67 % 0 in /  0.0 mm
19:00 58.1 °F /  14.5 °C 46.8 °F /  8.2 °C 30.5 in /  1031.4 hPa North 3.5 mph /  5.6 km/h 3.5 mph /  5.6 km/h 66 % 0 in /  0.0 mm
19:04 57.9 °F /  14.4 °C 46.6 °F /  8.1 °C 30.5 in /  1031.4 hPa North 3.5 mph /  5.6 km/h 3.5 mph /  5.6 km/h 66 % 0 in /  0.0 mm
19:05 57.9 °F /  14.4 °C 46.9 °F /  8.3 °C 30.5 in /  1031.4 hPa North 3.5 mph /  5.6 km/h 3.5 mph /  5.6 km/h 67 % 0 in /  0.0 mm
19:10 57.9 °F /  14.4 °C 47.1 °F /  8.4 °C 30.4 in /  1031.0 hPa Calm     67 % 0 in /  0.0 mm
19:11 57.9 °F /  14.4 °C 47.1 °F /  8.4 °C 30.4 in /  1031.0 hPa Calm     67 % 0 in /  0.0 mm
19:16 57.7 °F /  14.3 °C 47.3 °F /  8.5 °C 30.4 in /  1031.0 hPa Calm     68 % 0 in /  0.0 mm
19:19 57.7 °F /  14.3 °C 47.1 °F /  8.4 °C 30.5 in /  1031.4 hPa Calm     68 % 0 in /  0.0 mm
19:23 57.6 °F /  14.2 °C 46.9 °F /  8.3 °C 30.4 in /  1031.0 hPa North 3.5 mph /  5.6 km/h 3.5 mph /  5.6 km/h 68 % 0 in /  0.0 mm
19:26 57.2 °F /  14.0 °C 46.8 °F /  8.2 °C 30.4 in /  1031.0 hPa North 5 mph /  8.0 km/h 5 mph /  8.0 km/h 68 % 0 in /  0.0 mm
19:31 56.8 °F /  13.8 °C 46 °F /  7.8 °C 30.5 in /  1031.4 hPa North 5 mph /  8.0 km/h 5 mph /  8.0 km/h 67 % 0 in /  0.0 mm
19:32 56.7 °F /  13.7 °C 45.9 °F /  7.7 °C 30.5 in /  1031.4 hPa North 5.8 mph /  9.3 km/h 5.8 mph /  9.3 km/h 67 % 0 in /  0.0 mm
19:34 56.7 °F /  13.7 °C 45.9 °F /  7.7 °C 30.5 in /  1031.4 hPa North 6 mph /  9.7 km/h 6 mph /  9.7 km/h 67 % 0 in /  0.0 mm
19:38 56.5 °F /  13.6 °C 45.3 °F /  7.4 °C 30.5 in /  1031.7 hPa North 5.8 mph /  9.3 km/h 5.8 mph /  9.3 km/h 66 % 0 in /  0.0 mm
19:43 56.5 °F /  13.6 °C 45.1 °F /  7.3 °C 30.5 in /  1031.7 hPa North 4.6 mph /  7.4 km/h 4.7 mph /  7.6 km/h 66 % 0 in /  0.0 mm
19:48 56.3 °F /  13.5 °C 44.2 °F /  6.8 °C 30.5 in /  1031.4 hPa NNW 3.5 mph /  5.6 km/h 3.5 mph /  5.6 km/h 64 % 0 in /  0.0 mm
19:49 56.3 °F /  13.5 °C 44.2 °F /  6.8 °C 30.5 in /  1031.4 hPa NNW 4 mph /  6.4 km/h 4 mph /  6.4 km/h 64 % 0 in /  0.0 mm
19:50 56.3 °F /  13.5 °C 44.2 °F /  6.8 °C 30.5 in /  1031.4 hPa NNW 3.5 mph /  5.6 km/h 3.5 mph /  5.6 km/h 64 % 0 in /  0.0 mm
19:55 56.7 °F /  13.7 °C 44.1 °F /  6.7 °C 30.5 in /  1031.4 hPa North 4.6 mph /  7.4 km/h 4.6 mph /  7.4 km/h 63 % 0 in /  0.0 mm
19:57 56.7 °F /  13.7 °C 44.8 °F /  7.1 °C 30.5 in /  1031.4 hPa North 4.6 mph /  7.4 km/h 4.6 mph /  7.4 km/h 64 % 0 in /  0.0 mm
20:02 56.7 °F /  13.7 °C 43.7 °F /  6.5 °C 30.5 in /  1031.4 hPa North 4.6 mph /  7.4 km/h 4.6 mph /  7.4 km/h 62 % 0 in /  0.0 mm
20:04 56.7 °F /  13.7 °C 43.7 °F /  6.5 °C 30.5 in /  1031.4 hPa NNW 4.6 mph /  7.4 km/h 4.6 mph /  7.4 km/h 62 % 0 in /  0.0 mm
20:09 56.5 °F /  13.6 °C 41 °F /  5.0 °C 30.5 in /  1031.7 hPa NNW 7 mph /  11.3 km/h 7 mph /  11.3 km/h 56 % 0 in /  0.0 mm
20:14 57 °F /  13.9 °C 40.5 °F /  4.7 °C 30.5 in /  1031.7 hPa NNW 8 mph /  12.9 km/h 8 mph /  12.9 km/h 54 % 0 in /  0.0 mm
20:15 57 °F /  13.9 °C 39.9 °F /  4.4 °C 30.5 in /  1031.7 hPa NNW 8.1 mph /  13.0 km/h 8.1 mph /  13.0 km/h 53 % 0 in /  0.0 mm
20:20 56.8 °F /  13.8 °C 39.4 °F /  4.1 °C 30.5 in /  1031.7 hPa North 8.1 mph /  13.0 km/h 8.1 mph /  13.0 km/h 52 % 0 in /  0.0 mm
20:22 56.8 °F /  13.8 °C 38.3 °F /  3.5 °C 30.5 in /  1031.7 hPa North 10.4 mph /  16.7 km/h 10.4 mph /  16.7 km/h 50 % 0 in /  0.0 mm
20:25 56.8 °F /  13.8 °C 37.9 °F /  3.3 °C 30.5 in /  1031.7 hPa NNW 8.1 mph /  13.0 km/h 8.1 mph /  13.0 km/h 49 % 0 in /  0.0 mm
20:28 56.8 °F /  13.8 °C 37.9 °F /  3.3 °C 30.5 in /  1031.7 hPa North 8.1 mph /  13.0 km/h 8.1 mph /  13.0 km/h 49 % 0 in /  0.0 mm
20:30 56.8 °F /  13.8 °C 37.9 °F /  3.3 °C 30.5 in /  1031.7 hPa North 6.9 mph /  11.1 km/h 6.9 mph /  11.1 km/h 49 % 0 in /  0.0 mm
20:35 56.8 °F /  13.8 °C 37.2 °F /  2.9 °C 30.5 in /  1032.1 hPa North 7 mph /  11.3 km/h 7 mph /  11.3 km/h 48 % 0 in /  0.0 mm
20:36 56.8 °F /  13.8 °C 37.2 °F /  2.9 °C 30.5 in /  1031.7 hPa North 6.9 mph /  11.1 km/h 6.9 mph /  11.1 km/h 48 % 0 in /  0.0 mm
20:41 56.7 °F /  13.7 °C 37.2 °F /  2.9 °C 30.5 in /  1032.1 hPa North 6.9 mph /  11.1 km/h 6.9 mph /  11.1 km/h 48 % 0 in /  0.0 mm
20:45 56.7 °F /  13.7 °C 38.1 °F /  3.4 °C 30.5 in /  1032.1 hPa ENE 5.8 mph /  9.3 km/h 5.8 mph /  9.3 km/h 50 % 0 in /  0.0 mm
20:46 56.5 °F /  13.6 °C 38.5 °F /  3.6 °C 30.5 in /  1032.1 hPa NE 4.6 mph /  7.4 km/h 4.6 mph /  7.4 km/h 51 % 0 in /  0.0 mm
20:51 55.9 °F /  13.3 °C 38.5 °F /  3.6 °C 30.5 in /  1032.1 hPa NNE 4.6 mph /  7.4 km/h 4.6 mph /  7.4 km/h 52 % 0 in /  0.0 mm
20:52 55.9 °F /  13.3 °C 37.9 °F /  3.3 °C 30.5 in /  1032.1 hPa NNE 4.6 mph /  7.4 km/h 4.6 mph /  7.4 km/h 51 % 0 in /  0.0 mm
20:57 55.6 °F /  13.1 °C 37.8 °F /  3.2 °C 30.5 in /  1032.1 hPa North 3.5 mph /  5.6 km/h 3.5 mph /  5.6 km/h 51 % 0 in /  0.0 mm
20:58 55.6 °F /  13.1 °C 37.8 °F /  3.2 °C 30.5 in /  1032.1 hPa North 3.5 mph /  5.6 km/h 3.5 mph /  5.6 km/h 51 % 0 in /  0.0 mm
21:03 55.4 °F /  13.0 °C 37 °F /  2.8 °C 30.5 in /  1032.4 hPa North 5 mph /  8.0 km/h 5 mph /  8.0 km/h 50 % 0 in /  0.0 mm
21:05 55.4 °F /  13.0 °C 37 °F /  2.8 °C 30.5 in /  1032.4 hPa North 5.8 mph /  9.3 km/h 5.8 mph /  9.3 km/h 50 % 0 in /  0.0 mm
21:10 55.6 °F /  13.1 °C 37.8 °F /  3.2 °C 30.5 in /  1032.4 hPa North 3.5 mph /  5.6 km/h 3.5 mph /  5.6 km/h 51 % 0 in /  0.0 mm
21:15 55.9 °F /  13.3 °C 39 °F /  3.9 °C 30.5 in /  1032.4 hPa North 3.5 mph /  5.6 km/h 3.5 mph /  5.6 km/h 53 % 0 in /  0.0 mm
21:16 55.9 °F /  13.3 °C 39 °F /  3.9 °C 30.5 in /  1032.4 hPa North 4 mph /  6.4 km/h 4 mph /  6.4 km/h 53 % 0 in /  0.0 mm
21:21 56.1 °F /  13.4 °C 37.2 °F /  2.9 °C 30.5 in /  1032.4 hPa North 4.6 mph /  7.4 km/h 4.6 mph /  7.4 km/h 49 % 0 in /  0.0 mm
21:23 56.1 °F /  13.4 °C 37.8 °F /  3.2 °C 30.5 in /  1032.4 hPa North 3.5 mph /  5.6 km/h 3.5 mph /  5.6 km/h 50 % 0 in /  0.0 mm
21:26 56.1 °F /  13.4 °C 36.9 °F /  2.7 °C 30.5 in /  1032.4 hPa North 6.9 mph /  11.1 km/h 6.9 mph /  11.1 km/h 48 % 0 in /  0.0 mm
21:31 56.3 °F /  13.5 °C 35.8 °F /  2.1 °C 30.5 in /  1032.4 hPa NNE 4.6 mph /  7.4 km/h 4.6 mph /  7.4 km/h 46 % 0 in /  0.0 mm
21:33 56.3 °F /  13.5 °C 35.2 °F /  1.8 °C 30.5 in /  1032.4 hPa North 4 mph /  6.4 km/h 4 mph /  6.4 km/h 45 % 0 in /  0.0 mm
21:38 56.1 °F /  13.4 °C 35.1 °F /  1.7 °C 30.5 in /  1032.4 hPa NNE 3.5 mph /  5.6 km/h 3.5 mph /  5.6 km/h 45 % 0 in /  0.0 mm
21:43 55.9 °F /  13.3 °C 34.9 °F /  1.6 °C 30.5 in /  1032.4 hPa North 5 mph /  8.0 km/h 5 mph /  8.0 km/h 45 % 0 in /  0.0 mm
21:44 55.9 °F /  13.3 °C 34.9 °F /  1.6 °C 30.5 in /  1032.4 hPa North 4.6 mph /  7.4 km/h 4.6 mph /  7.4 km/h 45 % 0 in /  0.0 mm
21:49 55.8 °F /  13.2 °C 34.2 °F /  1.2 °C 30.5 in /  1032.4 hPa North 2.3 mph /  3.7 km/h 2.3 mph /  3.7 km/h 44 % 0 in /  0.0 mm
21:54 55.8 °F /  13.2 °C 32.4 °F /  0.2 °C 30.5 in /  1032.1 hPa NNW 3.5 mph /  5.6 km/h 3.5 mph /  5.6 km/h 41 % 0 in /  0.0 mm
21:55 55.9 °F /  13.3 °C 32.5 °F /  0.3 °C 30.5 in /  1032.1 hPa NNW 3.5 mph /  5.6 km/h 3.5 mph /  5.6 km/h 41 % 0 in /  0.0 mm
22:00 56.5 °F /  13.6 °C 31.6 °F /  -0.2 °C 30.5 in /  1032.1 hPa North 6.9 mph /  11.1 km/h 6.9 mph /  11.1 km/h 39 % 0 in /  0.0 mm
22:04 56.7 °F /  13.7 °C 30.7 °F /  -0.7 °C 30.5 in /  1032.1 hPa NNW 4.6 mph /  7.4 km/h 4.6 mph /  7.4 km/h 37 % 0 in /  0.0 mm
22:05 56.8 °F /  13.8 °C 30.7 °F /  -0.7 °C 30.5 in /  1032.4 hPa NNW 4.6 mph /  7.4 km/h 4.6 mph /  7.4 km/h 37 % 0 in /  0.0 mm
22:10 57.2 °F /  14.0 °C 29.1 °F /  -1.6 °C 30.5 in /  1032.4 hPa NNW 6.9 mph /  11.1 km/h 6.9 mph /  11.1 km/h 34 % 0 in /  0.0 mm
22:15 57.6 °F /  14.2 °C 28.6 °F /  -1.9 °C 30.5 in /  1032.4 hPa NNW 5.8 mph /  9.3 km/h 5.8 mph /  9.3 km/h 33 % 0 in /  0.0 mm
22:20 57.7 °F /  14.3 °C 28 °F /  -2.2 °C 30.5 in /  1032.4 hPa North 3 mph /  4.8 km/h 7 mph /  11.3 km/h 32 % 0 in /  0.0 mm
22:23 57.9 °F /  14.4 °C 28.2 °F /  -2.1 °C 30.5 in /  1032.4 hPa North 3.5 mph /  5.6 km/h 3.5 mph /  5.6 km/h 32 % 0 in /  0.0 mm
22:26 57.9 °F /  14.4 °C 28.2 °F /  -2.1 °C 30.5 in /  1032.4 hPa North 3.5 mph /  5.6 km/h 3.5 mph /  5.6 km/h 32 % 0 in /  0.0 mm
22:31 57.7 °F /  14.3 °C 31.6 °F /  -0.2 °C 30.5 in /  1032.4 hPa North 2.3 mph /  3.7 km/h 2.3 mph /  3.7 km/h 37 % 0 in /  0.0 mm
22:32 57.9 °F /  14.4 °C 33.6 °F /  0.9 °C 30.5 in /  1032.4 hPa North 2.3 mph /  3.7 km/h 2.3 mph /  3.7 km/h 40 % 0 in /  0.0 mm
22:34 57.9 °F /  14.4 °C 36.1 °F /  2.3 °C 30.5 in /  1032.4 hPa NNW 3.5 mph /  5.6 km/h 3.5 mph /  5.6 km/h 44 % 0 in /  0.0 mm
22:37 57.7 °F /  14.3 °C 38.1 °F /  3.4 °C 30.5 in /  1032.4 hPa NNW 2 mph /  3.2 km/h 2 mph /  3.2 km/h 48 % 0 in /  0.0 mm
22:42 57.7 °F /  14.3 °C 39.7 °F /  4.3 °C 30.5 in /  1032.4 hPa NNW 1.2 mph /  1.9 km/h 1.2 mph /  1.9 km/h 51 % 0 in /  0.0 mm
22:43 57.7 °F /  14.3 °C 38.7 °F /  3.7 °C 30.5 in /  1032.4 hPa NNW 1.2 mph /  1.9 km/h 1.2 mph /  1.9 km/h 49 % 0 in /  0.0 mm
22:48 57.4 °F /  14.1 °C 36.1 °F /  2.3 °C 30.5 in /  1032.4 hPa NNW 1.2 mph /  1.9 km/h 1.2 mph /  1.9 km/h 45 % 0 in /  0.0 mm
22:51 57.2 °F /  14.0 °C 31.8 °F /  -0.1 °C 30.5 in /  1032.1 hPa NNW 3 mph /  4.8 km/h 3 mph /  4.8 km/h 38 % 0 in /  0.0 mm
22:56 57 °F /  13.9 °C 31.6 °F /  -0.2 °C 30.5 in /  1032.4 hPa NNE 3.5 mph /  5.6 km/h 3.5 mph /  5.6 km/h 38 % 0 in /  0.0 mm
23:01 56.7 °F /  13.7 °C 31.5 °F /  -0.3 °C 30.5 in /  1032.4 hPa North 3.5 mph /  5.6 km/h 3.5 mph /  5.6 km/h 38 % 0 in /  0.0 mm
23:05 56.7 °F /  13.7 °C 31.5 °F /  -0.3 °C 30.5 in /  1032.4 hPa NNW 4.6 mph /  7.4 km/h 4.6 mph /  7.4 km/h 38 % 0 in /  0.0 mm
23:07 56.7 °F /  13.7 °C 31.5 °F /  -0.3 °C 30.5 in /  1032.4 hPa NNW 3.5 mph /  5.6 km/h 3.5 mph /  5.6 km/h 38 % 0 in /  0.0 mm
23:12 56.8 °F /  13.8 °C 31.5 °F /  -0.3 °C 30.5 in /  1032.4 hPa NNW 3.5 mph /  5.6 km/h 3.5 mph /  5.6 km/h 38 % 0 in /  0.0 mm
23:14 56.8 °F /  13.8 °C 31.5 °F /  -0.3 °C 30.5 in /  1032.4 hPa NNW 3.5 mph /  5.6 km/h 3.5 mph /  5.6 km/h 38 % 0 in /  0.0 mm
23:18 56.8 °F /  13.8 °C 32.7 °F /  0.4 °C 30.5 in /  1032.4 hPa NNW 2.3 mph /  3.7 km/h 2.3 mph /  3.7 km/h 40 % 0 in /  0.0 mm
23:21 56.8 °F /  13.8 °C 31.5 °F /  -0.3 °C 30.5 in /  1032.4 hPa NNW 1.2 mph /  1.9 km/h 1.2 mph /  1.9 km/h 38 % 0 in /  0.0 mm
23:25 56.8 °F /  13.8 °C 32.2 °F /  0.1 °C 30.5 in /  1032.4 hPa NNW 2.3 mph /  3.7 km/h 2.3 mph /  3.7 km/h 39 % 0 in /  0.0 mm
23:30 57.2 °F /  14.0 °C 31.1 °F /  -0.5 °C 30.5 in /  1032.4 hPa NNW 2.3 mph /  3.7 km/h 2.3 mph /  3.7 km/h 37 % 0 in /  0.0 mm
23:31 57.4 °F /  14.1 °C 31.3 °F /  -0.4 °C 30.5 in /  1032.4 hPa NNW 2.3 mph /  3.7 km/h 2.3 mph /  3.7 km/h 37 % 0 in /  0.0 mm
23:36 57.7 °F /  14.3 °C 30.9 °F /  -0.6 °C 30.5 in /  1032.4 hPa NNW 3.5 mph /  5.6 km/h 3.5 mph /  5.6 km/h 36 % 0 in /  0.0 mm
23:39 57.9 °F /  14.4 °C 32.5 °F /  0.3 °C 30.5 in /  1032.4 hPa Calm     38 % 0 in /  0.0 mm
23:44 57.7 °F /  14.3 °C 36 °F /  2.2 °C 30.5 in /  1032.4 hPa NNW 3.5 mph /  5.6 km/h 3.5 mph /  5.6 km/h 44 % 0 in /  0.0 mm
23:49 57.6 °F /  14.2 °C 39.9 °F /  4.4 °C 30.5 in /  1032.7 hPa NNW 2.3 mph /  3.7 km/h 2.3 mph /  3.7 km/h 52 % 0 in /  0.0 mm
23:50 57.6 °F /  14.2 °C 39.9 °F /  4.4 °C 30.5 in /  1032.7 hPa NNW 2.3 mph /  3.7 km/h 2.3 mph /  3.7 km/h 52 % 0 in /  0.0 mm
23:54 57 °F /  13.9 °C 37.6 °F /  3.1 °C 30.5 in /  1032.7 hPa Calm     48 % 0 in /  0.0 mm
23:55 57 °F /  13.9 °C 37.6 °F /  3.1 °C 30.5 in /  1032.7 hPa Calm     48 % 0 in /  0.0 mm
Puerto Banus, Marbella
Elogios de Weather Underground - 2.25 mb

Guión original por  Jim McMurry - jmcmurry@mwt.net Adaptado para la plantilla por  Wim van der Kuil - Leuven-Template.eu

Usted encontrará nuestra información del tiempo también en:

Weather Underground

Iberian Peninsula Weather Network